Lerna, Illinois
Current Conditions -  °F | °C
As of 9:53 AM on Wednesday 28 Jan 2015 (Local Time) from KMTO Reporting Station
Clear Clear  
Wind Chill: -7°   Ceiling: Unl
Heat Index: -1°   Visibility: 10mi
Dew Point: -6°   Wind: 15mph
Humidity: 69%   Direction: 160°SSE
Pressure: 30.27"   Gusts: NA
Location:  39.42°N, 88.29°W
Report Text: KMTO 281553Z AUTO 16013KT 10SM CLR M01/M06 A3027 RMK AO2 SLP259 T10111061
Loading
Personal Weather Stations






























Interactive Weather Map New forecast layout! Learn more

10-Day Weather Forecast

Advertisements
Track Severe Weather on mobile